sensor_id;sensor_type;location;lat;lon;timestamp;P1;durP1;ratioP1;P2;durP2;ratioP2
65567;SDS011;52211;50.154;8.682;2022-12-18T00:00:28;18.53;;;11.47;;
65567;SDS011;52211;50.154;8.682;2022-12-18T00:02:57;17.03;;;10.13;;
65567;SDS011;52211;50.154;8.682;2022-12-18T00:05:26;22.13;;;12.27;;
65567;SDS011;52211;50.154;8.682;2022-12-18T00:07:55;17.23;;;10.90;;
65567;SDS011;52211;50.154;8.682;2022-12-18T00:10:22;19.20;;;10.47;;
65567;SDS011;52211;50.154;8.682;2022-12-18T00:12:51;17.20;;;9.53;;
65567;SDS011;52211;50.154;8.682;2022-12-18T00:15:18;20.83;;;10.87;;
65567;SDS011;52211;50.154;8.682;2022-12-18T00:17:49;19.83;;;11.80;;
65567;SDS011;52211;50.154;8.682;2022-12-18T00:20:18;21.83;;;12.20;;
65567;SDS011;52211;50.154;8.682;2022-12-18T00:22:52;17.70;;;10.63;;
65567;SDS011;52211;50.154;8.682;2022-12-18T00:25:24;17.77;;;10.63;;
65567;SDS011;52211;50.154;8.682;2022-12-18T00:27:53;20.90;;;11.53;;
65567;SDS011;52211;50.154;8.682;2022-12-18T00:30:20;14.43;;;9.83;;
65567;SDS011;52211;50.154;8.682;2022-12-18T00:32:47;21.33;;;9.60;;
65567;SDS011;52211;50.154;8.682;2022-12-18T00:35:14;17.33;;;10.17;;
65567;SDS011;52211;50.154;8.682;2022-12-18T00:37:41;18.23;;;10.53;;
65567;SDS011;52211;50.154;8.682;2022-12-18T00:40:08;17.87;;;10.47;;
65567;SDS011;52211;50.154;8.682;2022-12-18T00:42:38;18.50;;;11.17;;
65567;SDS011;52211;50.154;8.682;2022-12-18T00:45:28;16.43;;;10.00;;
65567;SDS011;52211;50.154;8.682;2022-12-18T00:47:59;16.37;;;9.70;;
65567;SDS011;52211;50.154;8.682;2022-12-18T00:50:30;15.23;;;9.90;;
65567;SDS011;52211;50.154;8.682;2022-12-18T00:52:59;13.87;;;8.60;;
65567;SDS011;52211;50.154;8.682;2022-12-18T00:55:35;14.53;;;8.23;;
65567;SDS011;52211;50.154;8.682;2022-12-18T00:58:10;12.73;;;8.33;;
65567;SDS011;52211;50.154;8.682;2022-12-18T01:00:43;15.90;;;9.73;;
65567;SDS011;52211;50.154;8.682;2022-12-18T01:03:13;16.13;;;9.57;;
65567;SDS011;52211;50.154;8.682;2022-12-18T01:05:42;15.60;;;8.73;;
65567;SDS011;52211;50.154;8.682;2022-12-18T01:08:10;17.17;;;9.10;;
65567;SDS011;52211;50.154;8.682;2022-12-18T01:10:40;15.67;;;8.97;;
65567;SDS011;52211;50.154;8.682;2022-12-18T01:13:15;16.37;;;8.53;;
65567;SDS011;52211;50.154;8.682;2022-12-18T01:15:48;11.50;;;8.27;;
65567;SDS011;52211;50.154;8.682;2022-12-18T01:18:15;14.87;;;8.47;;
65567;SDS011;52211;50.154;8.682;2022-12-18T01:20:47;14.37;;;7.67;;
65567;SDS011;52211;50.154;8.682;2022-12-18T01:23:17;12.93;;;7.33;;
65567;SDS011;52211;50.154;8.682;2022-12-18T01:25:48;15.60;;;8.80;;
65567;SDS011;52211;50.154;8.682;2022-12-18T01:28:18;15.43;;;9.33;;
65567;SDS011;52211;50.154;8.682;2022-12-18T01:30:45;17.33;;;11.10;;
65567;SDS011;52211;50.154;8.682;2022-12-18T01:33:19;13.13;;;8.30;;
65567;SDS011;52211;50.154;8.682;2022-12-18T01:35:48;14.83;;;9.40;;
65567;SDS011;52211;50.154;8.682;2022-12-18T01:38:15;15.63;;;8.67;;
65567;SDS011;52211;50.154;8.682;2022-12-18T01:40:45;17.73;;;9.57;;
65567;SDS011;52211;50.154;8.682;2022-12-18T01:43:12;17.40;;;9.87;;
65567;SDS011;52211;50.154;8.682;2022-12-18T01:45:41;18.77;;;10.83;;
65567;SDS011;52211;50.154;8.682;2022-12-18T01:48:12;19.10;;;11.97;;
65567;SDS011;52211;50.154;8.682;2022-12-18T01:50:42;18.13;;;10.27;;
65567;SDS011;52211;50.154;8.682;2022-12-18T01:55:55;16.90;;;9.53;;
65567;SDS011;52211;50.154;8.682;2022-12-18T02:01:21;16.17;;;9.73;;
65567;SDS011;52211;50.154;8.682;2022-12-18T02:03:52;15.00;;;9.13;;
65567;SDS011;52211;50.154;8.682;2022-12-18T02:06:58;19.43;;;9.83;;
65567;SDS011;52211;50.154;8.682;2022-12-18T02:09:50;15.70;;;9.47;;
65567;SDS011;52211;50.154;8.682;2022-12-18T02:12:48;17.67;;;9.83;;
65567;SDS011;52211;50.154;8.682;2022-12-18T02:18:11;17.83;;;9.97;;
65567;SDS011;52211;50.154;8.682;2022-12-18T02:26:45;16.80;;;10.77;;
65567;SDS011;52211;50.154;8.682;2022-12-18T02:29:24;17.87;;;9.30;;
65567;SDS011;52211;50.154;8.682;2022-12-18T02:32:00;16.37;;;8.77;;
65567;SDS011;52211;50.154;8.682;2022-12-18T02:34:34;16.83;;;9.57;;
65567;SDS011;52211;50.154;8.682;2022-12-18T02:37:08;13.63;;;8.40;;
65567;SDS011;52211;50.154;8.682;2022-12-18T02:39:46;16.60;;;8.73;;
65567;SDS011;52211;50.154;8.682;2022-12-18T02:42:19;16.47;;;8.90;;
65567;SDS011;52211;50.154;8.682;2022-12-18T02:44:54;14.50;;;8.57;;
65567;SDS011;52211;50.154;8.682;2022-12-18T02:47:24;17.37;;;10.33;;
65567;SDS011;52211;50.154;8.682;2022-12-18T03:01:28;16.40;;;9.47;;
65567;SDS011;52211;50.154;8.682;2022-12-18T03:04:22;16.30;;;9.17;;
65567;SDS011;52211;50.154;8.682;2022-12-18T03:06:55;14.90;;;9.10;;
65567;SDS011;52211;50.154;8.682;2022-12-18T03:09:35;17.40;;;9.77;;
65567;SDS011;52211;50.154;8.682;2022-12-18T03:12:12;17.87;;;9.63;;
65567;SDS011;52211;50.154;8.682;2022-12-18T03:14:53;16.60;;;9.00;;
65567;SDS011;52211;50.154;8.682;2022-12-18T03:17:31;16.40;;;9.60;;
65567;SDS011;52211;50.154;8.682;2022-12-18T03:20:07;14.70;;;9.53;;
65567;SDS011;52211;50.154;8.682;2022-12-18T03:22:43;15.53;;;9.77;;
65567;SDS011;52211;50.154;8.682;2022-12-18T03:25:17;13.90;;;8.63;;
65567;SDS011;52211;50.154;8.682;2022-12-18T03:27:47;13.83;;;8.53;;
65567;SDS011;52211;50.154;8.682;2022-12-18T03:30:19;13.43;;;9.03;;
65567;SDS011;52211;50.154;8.682;2022-12-18T03:32:51;14.20;;;8.87;;
65567;SDS011;52211;50.154;8.682;2022-12-18T03:35:37;15.67;;;8.90;;
65567;SDS011;52211;50.154;8.682;2022-12-18T03:38:15;15.57;;;8.80;;
65567;SDS011;52211;50.154;8.682;2022-12-18T03:44:11;14.40;;;8.83;;
65567;SDS011;52211;50.154;8.682;2022-12-18T03:47:07;14.70;;;9.27;;
65567;SDS011;52211;50.154;8.682;2022-12-18T03:50:22;13.90;;;8.23;;
65567;SDS011;52211;50.154;8.682;2022-12-18T03:56:01;14.93;;;9.63;;
65567;SDS011;52211;50.154;8.682;2022-12-18T03:58:36;19.20;;;10.33;;
65567;SDS011;52211;50.154;8.682;2022-12-18T04:01:16;13.40;;;8.37;;
65567;SDS011;52211;50.154;8.682;2022-12-18T04:03:47;16.30;;;9.00;;
65567;SDS011;52211;50.154;8.682;2022-12-18T04:06:19;13.33;;;8.03;;
65567;SDS011;52211;50.154;8.682;2022-12-18T04:08:47;15.30;;;9.07;;
65567;SDS011;52211;50.154;8.682;2022-12-18T04:11:19;14.57;;;8.93;;
65567;SDS011;52211;50.154;8.682;2022-12-18T04:13:46;14.37;;;8.97;;
65567;SDS011;52211;50.154;8.682;2022-12-18T04:16:21;18.70;;;10.37;;
65567;SDS011;52211;50.154;8.682;2022-12-18T04:19:00;17.03;;;8.70;;
65567;SDS011;52211;50.154;8.682;2022-12-18T04:21:35;17.60;;;9.07;;
65567;SDS011;52211;50.154;8.682;2022-12-18T04:24:04;17.40;;;10.27;;
65567;SDS011;52211;50.154;8.682;2022-12-18T04:26:37;20.20;;;10.40;;
65567;SDS011;52211;50.154;8.682;2022-12-18T04:29:15;16.40;;;9.43;;
65567;SDS011;52211;50.154;8.682;2022-12-18T04:31:45;14.33;;;7.80;;
65567;SDS011;52211;50.154;8.682;2022-12-18T04:34:12;15.37;;;9.20;;
65567;SDS011;52211;50.154;8.682;2022-12-18T04:36:46;15.83;;;9.30;;
65567;SDS011;52211;50.154;8.682;2022-12-18T04:39:17;15.13;;;10.00;;
65567;SDS011;52211;50.154;8.682;2022-12-18T04:41:46;15.50;;;8.33;;
65567;SDS011;52211;50.154;8.682;2022-12-18T04:44:16;15.70;;;9.33;;
65567;SDS011;52211;50.154;8.682;2022-12-18T04:46:46;19.10;;;8.77;;
65567;SDS011;52211;50.154;8.682;2022-12-18T04:49:12;16.67;;;10.03;;
65567;SDS011;52211;50.154;8.682;2022-12-18T04:51:39;13.40;;;9.33;;
65567;SDS011;52211;50.154;8.682;2022-12-18T04:54:08;16.50;;;9.97;;
65567;SDS011;52211;50.154;8.682;2022-12-18T04:56:38;17.93;;;10.67;;
65567;SDS011;52211;50.154;8.682;2022-12-18T04:59:07;18.30;;;10.63;;
65567;SDS011;52211;50.154;8.682;2022-12-18T05:01:38;16.70;;;10.83;;
65567;SDS011;52211;50.154;8.682;2022-12-18T05:04:10;20.50;;;11.83;;
65567;SDS011;52211;50.154;8.682;2022-12-18T05:06:39;21.30;;;12.37;;
65567;SDS011;52211;50.154;8.682;2022-12-18T05:09:08;19.57;;;11.40;;
65567;SDS011;52211;50.154;8.682;2022-12-18T05:11:35;17.97;;;10.33;;
65567;SDS011;52211;50.154;8.682;2022-12-18T05:14:02;17.07;;;10.03;;
65567;SDS011;52211;50.154;8.682;2022-12-18T05:16:31;16.20;;;10.00;;
65567;SDS011;52211;50.154;8.682;2022-12-18T05:19:05;20.13;;;10.23;;
65567;SDS011;52211;50.154;8.682;2022-12-18T05:21:34;17.07;;;9.67;;
65567;SDS011;52211;50.154;8.682;2022-12-18T05:24:06;15.90;;;9.10;;
65567;SDS011;52211;50.154;8.682;2022-12-18T05:26:33;16.07;;;10.30;;
65567;SDS011;52211;50.154;8.682;2022-12-18T05:29:00;14.90;;;8.53;;
65567;SDS011;52211;50.154;8.682;2022-12-18T05:31:27;14.23;;;8.80;;
65567;SDS011;52211;50.154;8.682;2022-12-18T05:34:05;17.17;;;8.17;;
65567;SDS011;52211;50.154;8.682;2022-12-18T05:36:32;16.90;;;9.87;;
65567;SDS011;52211;50.154;8.682;2022-12-18T05:38:59;15.87;;;8.77;;
65567;SDS011;52211;50.154;8.682;2022-12-18T05:41:33;12.70;;;7.97;;
65567;SDS011;52211;50.154;8.682;2022-12-18T05:44:02;16.30;;;9.23;;
65567;SDS011;52211;50.154;8.682;2022-12-18T05:46:34;15.57;;;7.97;;
65567;SDS011;52211;50.154;8.682;2022-12-18T05:49:08;15.37;;;8.97;;
65567;SDS011;52211;50.154;8.682;2022-12-18T05:51:37;15.43;;;8.70;;
65567;SDS011;52211;50.154;8.682;2022-12-18T05:54:04;15.70;;;9.17;;
65567;SDS011;52211;50.154;8.682;2022-12-18T05:56:31;14.90;;;8.40;;
65567;SDS011;52211;50.154;8.682;2022-12-18T05:59:00;17.37;;;9.23;;
65567;SDS011;52211;50.154;8.682;2022-12-18T06:01:30;15.90;;;9.23;;
65567;SDS011;52211;50.154;8.682;2022-12-18T06:04:02;15.37;;;8.43;;
65567;SDS011;52211;50.154;8.682;2022-12-18T06:06:31;15.87;;;9.60;;
65567;SDS011;52211;50.154;8.682;2022-12-18T06:08:58;14.80;;;8.47;;
65567;SDS011;52211;50.154;8.682;2022-12-18T06:11:27;13.93;;;8.43;;
65567;SDS011;52211;50.154;8.682;2022-12-18T06:13:59;16.67;;;8.93;;
65567;SDS011;52211;50.154;8.682;2022-12-18T06:16:30;14.83;;;8.97;;
65567;SDS011;52211;50.154;8.682;2022-12-18T06:19:00;18.87;;;10.23;;
65567;SDS011;52211;50.154;8.682;2022-12-18T06:21:32;14.50;;;8.70;;
65567;SDS011;52211;50.154;8.682;2022-12-18T06:24:01;13.53;;;7.93;;
65567;SDS011;52211;50.154;8.682;2022-12-18T06:26:31;16.20;;;9.03;;
65567;SDS011;52211;50.154;8.682;2022-12-18T06:29:00;16.70;;;10.17;;
65567;SDS011;52211;50.154;8.682;2022-12-18T06:31:32;16.20;;;9.33;;
65567;SDS011;52211;50.154;8.682;2022-12-18T06:34:01;16.17;;;9.17;;
65567;SDS011;52211;50.154;8.682;2022-12-18T06:36:32;17.57;;;9.33;;
65567;SDS011;52211;50.154;8.682;2022-12-18T06:38:59;15.60;;;9.30;;
65567;SDS011;52211;50.154;8.682;2022-12-18T06:41:26;15.63;;;8.50;;
65567;SDS011;52211;50.154;8.682;2022-12-18T06:43:53;17.50;;;9.33;;
65567;SDS011;52211;50.154;8.682;2022-12-18T06:46:25;15.23;;;8.87;;
65567;SDS011;52211;50.154;8.682;2022-12-18T06:48:54;15.27;;;9.40;;
65567;SDS011;52211;50.154;8.682;2022-12-18T06:51:26;19.87;;;10.10;;
65567;SDS011;52211;50.154;8.682;2022-12-18T06:53:53;13.47;;;8.43;;
65567;SDS011;52211;50.154;8.682;2022-12-18T06:56:25;16.90;;;8.70;;
65567;SDS011;52211;50.154;8.682;2022-12-18T06:58:56;15.30;;;8.90;;
65567;SDS011;52211;50.154;8.682;2022-12-18T07:01:23;18.50;;;10.37;;
65567;SDS011;52211;50.154;8.682;2022-12-18T07:03:54;17.50;;;9.73;;
65567;SDS011;52211;50.154;8.682;2022-12-18T07:06:23;13.47;;;8.90;;
65567;SDS011;52211;50.154;8.682;2022-12-18T07:08:54;17.07;;;8.93;;
65567;SDS011;52211;50.154;8.682;2022-12-18T07:11:21;15.53;;;10.00;;
65567;SDS011;52211;50.154;8.682;2022-12-18T07:13:49;14.00;;;9.60;;
65567;SDS011;52211;50.154;8.682;2022-12-18T07:16:17;17.37;;;10.13;;
65567;SDS011;52211;50.154;8.682;2022-12-18T07:18:51;14.67;;;9.67;;
65567;SDS011;52211;50.154;8.682;2022-12-18T07:21:21;15.83;;;8.93;;
65567;SDS011;52211;50.154;8.682;2022-12-18T07:23:49;18.60;;;9.83;;
65567;SDS011;52211;50.154;8.682;2022-12-18T07:26:20;16.73;;;10.20;;
65567;SDS011;52211;50.154;8.682;2022-12-18T07:28:50;15.93;;;9.87;;
65567;SDS011;52211;50.154;8.682;2022-12-18T07:31:24;18.17;;;9.87;;
65567;SDS011;52211;50.154;8.682;2022-12-18T07:33:56;17.57;;;10.93;;
65567;SDS011;52211;50.154;8.682;2022-12-18T07:36:25;17.80;;;10.23;;
65567;SDS011;52211;50.154;8.682;2022-12-18T07:38:56;18.27;;;10.17;;
65567;SDS011;52211;50.154;8.682;2022-12-18T07:41:25;14.50;;;9.00;;
65567;SDS011;52211;50.154;8.682;2022-12-18T07:43:52;17.53;;;9.60;;
65567;SDS011;52211;50.154;8.682;2022-12-18T07:46:19;21.13;;;10.93;;
65567;SDS011;52211;50.154;8.682;2022-12-18T07:48:49;19.13;;;10.57;;
65567;SDS011;52211;50.154;8.682;2022-12-18T07:51:18;17.00;;;9.73;;
65567;SDS011;52211;50.154;8.682;2022-12-18T07:53:45;20.03;;;10.60;;
65567;SDS011;52211;50.154;8.682;2022-12-18T07:56:17;22.20;;;11.50;;
65567;SDS011;52211;50.154;8.682;2022-12-18T07:58:55;17.70;;;10.00;;
65567;SDS011;52211;50.154;8.682;2022-12-18T08:01:25;19.57;;;11.87;;
65567;SDS011;52211;50.154;8.682;2022-12-18T08:03:55;18.07;;;10.33;;
65567;SDS011;52211;50.154;8.682;2022-12-18T08:06:31;17.77;;;10.73;;
65567;SDS011;52211;50.154;8.682;2022-12-18T08:08:58;18.30;;;11.37;;
65567;SDS011;52211;50.154;8.682;2022-12-18T08:11:25;18.63;;;11.30;;
65567;SDS011;52211;50.154;8.682;2022-12-18T08:13:57;16.60;;;10.87;;
65567;SDS011;52211;50.154;8.682;2022-12-18T08:16:26;20.13;;;11.33;;
65567;SDS011;52211;50.154;8.682;2022-12-18T08:18:54;18.90;;;11.17;;
65567;SDS011;52211;50.154;8.682;2022-12-18T08:21:22;18.07;;;11.00;;
65567;SDS011;52211;50.154;8.682;2022-12-18T08:23:55;18.93;;;11.97;;
65567;SDS011;52211;50.154;8.682;2022-12-18T08:26:29;20.40;;;10.40;;
65567;SDS011;52211;50.154;8.682;2022-12-18T08:28:58;19.27;;;11.07;;
65567;SDS011;52211;50.154;8.682;2022-12-18T08:31:27;20.87;;;11.03;;
65567;SDS011;52211;50.154;8.682;2022-12-18T08:34:01;25.13;;;14.27;;
65567;SDS011;52211;50.154;8.682;2022-12-18T08:36:31;23.47;;;12.97;;
65567;SDS011;52211;50.154;8.682;2022-12-18T08:39:03;26.87;;;13.30;;
65567;SDS011;52211;50.154;8.682;2022-12-18T08:41:33;30.03;;;13.17;;
65567;SDS011;52211;50.154;8.682;2022-12-18T08:43:59;27.10;;;12.93;;
65567;SDS011;52211;50.154;8.682;2022-12-18T08:46:45;24.00;;;13.57;;
65567;SDS011;52211;50.154;8.682;2022-12-18T08:49:12;30.03;;;13.90;;
65567;SDS011;52211;50.154;8.682;2022-12-18T08:51:39;42.27;;;21.47;;
65567;SDS011;52211;50.154;8.682;2022-12-18T08:54:10;68.07;;;30.37;;
65567;SDS011;52211;50.154;8.682;2022-12-18T08:56:40;78.43;;;32.43;;
65567;SDS011;52211;50.154;8.682;2022-12-18T08:59:13;59.20;;;25.67;;
65567;SDS011;52211;50.154;8.682;2022-12-18T09:01:46;44.93;;;19.57;;
65567;SDS011;52211;50.154;8.682;2022-12-18T09:04:16;43.57;;;20.70;;
65567;SDS011;52211;50.154;8.682;2022-12-18T09:06:43;40.80;;;17.77;;
65567;SDS011;52211;50.154;8.682;2022-12-18T09:09:12;30.40;;;15.50;;
65567;SDS011;52211;50.154;8.682;2022-12-18T09:11:42;38.00;;;19.13;;
65567;SDS011;52211;50.154;8.682;2022-12-18T09:14:13;31.20;;;16.77;;
65567;SDS011;52211;50.154;8.682;2022-12-18T09:16:43;25.57;;;15.20;;
65567;SDS011;52211;50.154;8.682;2022-12-18T09:19:12;22.87;;;14.17;;
65567;SDS011;52211;50.154;8.682;2022-12-18T09:21:39;17.30;;;11.57;;
65567;SDS011;52211;50.154;8.682;2022-12-18T09:24:13;17.93;;;11.53;;
65567;SDS011;52211;50.154;8.682;2022-12-18T09:26:41;19.73;;;12.37;;
65567;SDS011;52211;50.154;8.682;2022-12-18T09:29:15;22.57;;;14.00;;
65567;SDS011;52211;50.154;8.682;2022-12-18T09:31:44;25.67;;;14.30;;
65567;SDS011;52211;50.154;8.682;2022-12-18T09:34:14;26.83;;;13.87;;
65567;SDS011;52211;50.154;8.682;2022-12-18T09:36:50;25.60;;;14.87;;
65567;SDS011;52211;50.154;8.682;2022-12-18T09:39:24;20.73;;;13.63;;
65567;SDS011;52211;50.154;8.682;2022-12-18T09:41:59;19.50;;;12.50;;
65567;SDS011;52211;50.154;8.682;2022-12-18T09:44:29;19.20;;;13.30;;
65567;SDS011;52211;50.154;8.682;2022-12-18T09:47:30;21.70;;;13.60;;
65567;SDS011;52211;50.154;8.682;2022-12-18T09:50:20;19.80;;;12.63;;
65567;SDS011;52211;50.154;8.682;2022-12-18T09:53:10;18.80;;;13.13;;
65567;SDS011;52211;50.154;8.682;2022-12-18T09:55:45;19.90;;;12.27;;
65567;SDS011;52211;50.154;8.682;2022-12-18T09:58:31;24.73;;;16.07;;
65567;SDS011;52211;50.154;8.682;2022-12-18T10:01:11;21.10;;;14.53;;
65567;SDS011;52211;50.154;8.682;2022-12-18T10:03:47;20.10;;;13.70;;
65567;SDS011;52211;50.154;8.682;2022-12-18T10:09:01;22.10;;;14.90;;
65567;SDS011;52211;50.154;8.682;2022-12-18T10:21:04;22.13;;;15.60;;
65567;SDS011;52211;50.154;8.682;2022-12-18T10:27:08;27.47;;;16.40;;
65567;SDS011;52211;50.154;8.682;2022-12-18T10:29:48;27.80;;;17.97;;
65567;SDS011;52211;50.154;8.682;2022-12-18T10:32:16;30.93;;;18.83;;
65567;SDS011;52211;50.154;8.682;2022-12-18T10:34:53;26.07;;;17.93;;
65567;SDS011;52211;50.154;8.682;2022-12-18T10:37:27;31.50;;;19.03;;
65567;SDS011;52211;50.154;8.682;2022-12-18T10:42:59;28.77;;;18.23;;
65567;SDS011;52211;50.154;8.682;2022-12-18T10:45:31;31.50;;;19.27;;
65567;SDS011;52211;50.154;8.682;2022-12-18T10:47:58;29.97;;;19.97;;
65567;SDS011;52211;50.154;8.682;2022-12-18T10:50:35;27.00;;;17.23;;
65567;SDS011;52211;50.154;8.682;2022-12-18T10:53:27;28.27;;;18.03;;
65567;SDS011;52211;50.154;8.682;2022-12-18T10:55:57;30.30;;;15.70;;
65567;SDS011;52211;50.154;8.682;2022-12-18T11:03:37;28.30;;;16.37;;
65567;SDS011;52211;50.154;8.682;2022-12-18T11:06:31;26.87;;;17.70;;
65567;SDS011;52211;50.154;8.682;2022-12-18T11:09:18;30.73;;;18.07;;
65567;SDS011;52211;50.154;8.682;2022-12-18T11:11:54;28.60;;;16.93;;
65567;SDS011;52211;50.154;8.682;2022-12-18T11:14:33;30.37;;;17.67;;
65567;SDS011;52211;50.154;8.682;2022-12-18T11:17:32;32.60;;;17.03;;
65567;SDS011;52211;50.154;8.682;2022-12-18T11:20:05;31.93;;;17.77;;
65567;SDS011;52211;50.154;8.682;2022-12-18T11:22:54;29.33;;;17.87;;
65567;SDS011;52211;50.154;8.682;2022-12-18T11:25:30;31.13;;;16.77;;
65567;SDS011;52211;50.154;8.682;2022-12-18T11:30:36;29.83;;;18.80;;
65567;SDS011;52211;50.154;8.682;2022-12-18T11:38:34;29.40;;;15.83;;
65567;SDS011;52211;50.154;8.682;2022-12-18T11:44:25;33.57;;;18.33;;
65567;SDS011;52211;50.154;8.682;2022-12-18T11:49:47;36.40;;;18.30;;
65567;SDS011;52211;50.154;8.682;2022-12-18T11:52:24;31.70;;;18.37;;
65567;SDS011;52211;50.154;8.682;2022-12-18T11:55:04;32.90;;;18.47;;
65567;SDS011;52211;50.154;8.682;2022-12-18T11:57:56;35.17;;;18.57;;
65567;SDS011;52211;50.154;8.682;2022-12-18T12:00:34;32.57;;;17.93;;
65567;SDS011;52211;50.154;8.682;2022-12-18T12:03:16;29.00;;;17.93;;
65567;SDS011;52211;50.154;8.682;2022-12-18T12:06:17;30.80;;;17.73;;
65567;SDS011;52211;50.154;8.682;2022-12-18T12:09:22;32.40;;;18.03;;
65567;SDS011;52211;50.154;8.682;2022-12-18T12:21:28;27.90;;;16.00;;
65567;SDS011;52211;50.154;8.682;2022-12-18T12:30:06;34.03;;;17.63;;
65567;SDS011;52211;50.154;8.682;2022-12-18T12:35:50;34.27;;;18.43;;
65567;SDS011;52211;50.154;8.682;2022-12-18T12:38:51;31.47;;;17.27;;
65567;SDS011;52211;50.154;8.682;2022-12-18T12:41:30;31.83;;;17.43;;
65567;SDS011;52211;50.154;8.682;2022-12-18T12:44:23;32.67;;;18.53;;
65567;SDS011;52211;50.154;8.682;2022-12-18T12:47:12;36.43;;;19.73;;
65567;SDS011;52211;50.154;8.682;2022-12-18T12:49:49;31.43;;;16.73;;
65567;SDS011;52211;50.154;8.682;2022-12-18T12:52:38;32.50;;;17.40;;
65567;SDS011;52211;50.154;8.682;2022-12-18T12:55:17;32.27;;;16.90;;
65567;SDS011;52211;50.154;8.682;2022-12-18T13:01:11;31.67;;;17.40;;
65567;SDS011;52211;50.154;8.682;2022-12-18T13:07:06;32.33;;;16.90;;
65567;SDS011;52211;50.154;8.682;2022-12-18T13:12:51;30.93;;;16.30;;
65567;SDS011;52211;50.154;8.682;2022-12-18T13:18:21;32.10;;;17.27;;
65567;SDS011;52211;50.154;8.682;2022-12-18T13:23:44;28.50;;;15.30;;
65567;SDS011;52211;50.154;8.682;2022-12-18T13:28:54;26.83;;;16.77;;
65567;SDS011;52211;50.154;8.682;2022-12-18T13:36:54;34.17;;;18.17;;
65567;SDS011;52211;50.154;8.682;2022-12-18T13:40:06;32.77;;;19.03;;
65567;SDS011;52211;50.154;8.682;2022-12-18T13:49:01;25.33;;;14.90;;
65567;SDS011;52211;50.154;8.682;2022-12-18T13:51:49;30.90;;;15.37;;
65567;SDS011;52211;50.154;8.682;2022-12-18T13:57:04;33.17;;;17.43;;
65567;SDS011;52211;50.154;8.682;2022-12-18T13:59:53;26.47;;;15.97;;
65567;SDS011;52211;50.154;8.682;2022-12-18T14:02:22;29.03;;;16.53;;
65567;SDS011;52211;50.154;8.682;2022-12-18T14:04:52;27.77;;;15.93;;
65567;SDS011;52211;50.154;8.682;2022-12-18T14:07:28;29.33;;;16.77;;
65567;SDS011;52211;50.154;8.682;2022-12-18T14:10:11;32.10;;;16.23;;
65567;SDS011;52211;50.154;8.682;2022-12-18T14:13:05;27.97;;;16.13;;
65567;SDS011;52211;50.154;8.682;2022-12-18T14:15:42;26.47;;;13.87;;
65567;SDS011;52211;50.154;8.682;2022-12-18T14:20:46;26.83;;;16.03;;
65567;SDS011;52211;50.154;8.682;2022-12-18T14:23:40;29.57;;;16.53;;
65567;SDS011;52211;50.154;8.682;2022-12-18T14:26:26;30.27;;;16.33;;
65567;SDS011;52211;50.154;8.682;2022-12-18T14:28:57;35.77;;;17.23;;
65567;SDS011;52211;50.154;8.682;2022-12-18T14:31:30;27.77;;;14.77;;
65567;SDS011;52211;50.154;8.682;2022-12-18T14:34:00;31.20;;;15.57;;
65567;SDS011;52211;50.154;8.682;2022-12-18T14:36:29;29.70;;;16.97;;
65567;SDS011;52211;50.154;8.682;2022-12-18T14:38:57;32.73;;;16.07;;
65567;SDS011;52211;50.154;8.682;2022-12-18T14:41:26;30.07;;;16.07;;
65567;SDS011;52211;50.154;8.682;2022-12-18T14:44:04;25.47;;;15.73;;
65567;SDS011;52211;50.154;8.682;2022-12-18T14:46:39;29.37;;;16.30;;
65567;SDS011;52211;50.154;8.682;2022-12-18T14:52:03;31.07;;;17.87;;
65567;SDS011;52211;50.154;8.682;2022-12-18T14:54:45;27.17;;;15.60;;
65567;SDS011;52211;50.154;8.682;2022-12-18T14:57:23;28.57;;;16.00;;
65567;SDS011;52211;50.154;8.682;2022-12-18T15:00:06;29.37;;;16.80;;
65567;SDS011;52211;50.154;8.682;2022-12-18T15:02:43;32.03;;;16.33;;
65567;SDS011;52211;50.154;8.682;2022-12-18T15:05:26;31.00;;;16.53;;
65567;SDS011;52211;50.154;8.682;2022-12-18T15:07:57;33.87;;;17.80;;
65567;SDS011;52211;50.154;8.682;2022-12-18T15:10:32;34.10;;;18.00;;
65567;SDS011;52211;50.154;8.682;2022-12-18T15:23:45;57.57;;;25.03;;
65567;SDS011;52211;50.154;8.682;2022-12-18T15:26:15;43.57;;;21.60;;
65567;SDS011;52211;50.154;8.682;2022-12-18T15:31:39;41.07;;;19.63;;
65567;SDS011;52211;50.154;8.682;2022-12-18T15:34:13;39.60;;;20.27;;
65567;SDS011;52211;50.154;8.682;2022-12-18T15:36:51;39.43;;;19.87;;
65567;SDS011;52211;50.154;8.682;2022-12-18T15:39:20;45.07;;;21.80;;
65567;SDS011;52211;50.154;8.682;2022-12-18T15:41:47;42.43;;;21.60;;
65567;SDS011;52211;50.154;8.682;2022-12-18T15:44:33;42.00;;;20.87;;
65567;SDS011;52211;50.154;8.682;2022-12-18T15:47:00;35.47;;;19.77;;
65567;SDS011;52211;50.154;8.682;2022-12-18T15:49:33;33.53;;;17.93;;
65567;SDS011;52211;50.154;8.682;2022-12-18T15:52:02;33.97;;;19.37;;
65567;SDS011;52211;50.154;8.682;2022-12-18T15:54:32;34.37;;;19.53;;
65567;SDS011;52211;50.154;8.682;2022-12-18T15:57:17;37.80;;;20.57;;
65567;SDS011;52211;50.154;8.682;2022-12-18T15:59:51;42.20;;;20.77;;
65567;SDS011;52211;50.154;8.682;2022-12-18T16:02:22;39.20;;;20.27;;
65567;SDS011;52211;50.154;8.682;2022-12-18T16:04:54;46.43;;;24.10;;
65567;SDS011;52211;50.154;8.682;2022-12-18T16:07:21;48.97;;;23.20;;
65567;SDS011;52211;50.154;8.682;2022-12-18T16:09:54;43.37;;;19.77;;
65567;SDS011;52211;50.154;8.682;2022-12-18T16:12:25;36.07;;;19.13;;
65567;SDS011;52211;50.154;8.682;2022-12-18T16:14:55;44.73;;;22.03;;
65567;SDS011;52211;50.154;8.682;2022-12-18T16:17:24;32.07;;;19.83;;
65567;SDS011;52211;50.154;8.682;2022-12-18T16:19:54;41.50;;;21.80;;
65567;SDS011;52211;50.154;8.682;2022-12-18T16:22:30;50.57;;;24.90;;
65567;SDS011;52211;50.154;8.682;2022-12-18T16:25:02;43.43;;;23.40;;
65567;SDS011;52211;50.154;8.682;2022-12-18T16:27:31;39.60;;;24.20;;
65567;SDS011;52211;50.154;8.682;2022-12-18T16:29:58;41.80;;;23.20;;
65567;SDS011;52211;50.154;8.682;2022-12-18T16:32:29;36.33;;;21.33;;
65567;SDS011;52211;50.154;8.682;2022-12-18T16:35:01;44.20;;;23.93;;
65567;SDS011;52211;50.154;8.682;2022-12-18T16:37:29;39.97;;;21.00;;
65567;SDS011;52211;50.154;8.682;2022-12-18T16:40:01;39.20;;;21.43;;
65567;SDS011;52211;50.154;8.682;2022-12-18T16:42:34;41.87;;;22.30;;
65567;SDS011;52211;50.154;8.682;2022-12-18T16:45:10;36.63;;;19.73;;
65567;SDS011;52211;50.154;8.682;2022-12-18T16:47:43;40.57;;;22.77;;
65567;SDS011;52211;50.154;8.682;2022-12-18T16:50:13;37.47;;;21.13;;
65567;SDS011;52211;50.154;8.682;2022-12-18T16:52:40;43.33;;;21.57;;
65567;SDS011;52211;50.154;8.682;2022-12-18T16:55:15;33.23;;;19.47;;
65567;SDS011;52211;50.154;8.682;2022-12-18T16:57:49;34.30;;;20.77;;
65567;SDS011;52211;50.154;8.682;2022-12-18T17:00:19;35.63;;;20.13;;
65567;SDS011;52211;50.154;8.682;2022-12-18T17:02:50;40.37;;;21.53;;
65567;SDS011;52211;50.154;8.682;2022-12-18T17:05:21;36.20;;;21.50;;
65567;SDS011;52211;50.154;8.682;2022-12-18T17:07:55;35.03;;;20.87;;
65567;SDS011;52211;50.154;8.682;2022-12-18T17:10:25;49.17;;;23.80;;
65567;SDS011;52211;50.154;8.682;2022-12-18T17:12:55;50.50;;;25.07;;
65567;SDS011;52211;50.154;8.682;2022-12-18T17:15:25;40.57;;;22.47;;
65567;SDS011;52211;50.154;8.682;2022-12-18T17:17:56;46.47;;;23.57;;
65567;SDS011;52211;50.154;8.682;2022-12-18T17:20:24;39.90;;;23.33;;
65567;SDS011;52211;50.154;8.682;2022-12-18T17:22:50;39.10;;;21.87;;